Time;durP1;ratioP1;P1;durP2;ratioP2;P2;SDS_P1;SDS_P2;PMS_P1;PMS_P2;Temp;Humidity;BMP_temperature;BMP_pressure;BME280_temperature;BME280_humidity;BME280_pressure;Samples;Min_cycle;Max_cycle;Signal;HPM_P1;HPM_P2
2023/07/21 00:01:47;;;;;;;6.00;3.20;;;;;;;12.72;74.17;96976.52;101750;1291;636677;-76
2023/07/21 00:04:17;;;;;;;3.80;2.60;;;;;;;12.67;74.17;96976.10;102767;1287;96056;-78
2023/07/21 00:06:45;;;;;;;4.90;3.30;;;;;;;12.64;74.29;96972.45;102955;1283;96129;-78
2023/07/21 00:09:13;;;;;;;4.40;2.70;;;;;;;12.60;74.24;96972.58;102885;1285;99350;-78
2023/07/21 00:11:41;;;;;;;5.20;3.00;;;;;;;12.55;74.23;96972.77;102836;1296;101712;-79
2023/07/21 00:14:10;;;;;;;3.10;2.80;;;;;;;12.51;74.30;96971.59;102915;1299;165908;-79
2023/07/21 00:16:37;;;;;;;3.40;2.80;;;;;;;12.43;74.23;96970.54;103042;1279;95898;-77
2023/07/21 00:19:06;;;;;;;4.50;3.20;;;;;;;12.35;74.48;96969.52;103204;1282;96173;-77
2023/07/21 00:21:35;;;;;;;5.00;3.20;;;;;;;12.27;74.84;96970.14;103104;1293;99927;-77
2023/07/21 00:24:04;;;;;;;3.20;2.90;;;;;;;12.24;74.95;96967.64;102619;1289;100787;-77
2023/07/21 00:26:32;;;;;;;2.90;2.70;;;;;;;12.26;75.03;96966.38;102790;1283;98977;-77
2023/07/21 00:29:00;;;;;;;5.70;3.00;;;;;;;12.27;75.22;96969.64;103066;1280;97060;-78
2023/07/21 00:31:29;;;;;;;3.90;3.00;;;;;;;12.28;75.22;96970.42;103822;1288;96084;-79
2023/07/21 00:33:57;;;;;;;5.70;3.30;;;;;;;12.28;75.11;96964.69;103544;1277;101249;-79
2023/07/21 00:36:25;;;;;;;5.10;3.10;;;;;;;12.22;75.18;96965.09;103683;1276;100356;-79
2023/07/21 00:38:52;;;;;;;4.20;2.90;;;;;;;12.21;75.28;96965.81;103751;1273;100267;-74
2023/07/21 00:42:01;;;;;;;5.50;3.60;;;;;;;12.20;75.26;96965.20;103996;1258;96112;-71
2023/07/21 00:45:09;;;;;;;3.40;2.90;;;;;;;12.18;75.20;96966.92;104212;1267;96422;-71
2023/07/21 00:48:18;;;;;;;5.50;3.20;;;;;;;12.14;75.41;96968.77;103380;1281;99975;-76
2023/07/21 00:52:18;;;;;;;5.50;2.90;;;;;;;12.16;75.25;96961.41;101663;1298;636641;-76
2023/07/21 00:55:26;;;;;;;3.60;3.00;;;;;;;12.07;75.23;96957.88;103533;1278;95950;-76
2023/07/21 00:58:36;;;;;;;5.70;3.20;;;;;;;11.97;75.33;96954.47;102326;1301;97517;-72
2023/07/21 01:02:18;;;;;;;4.00;3.30;;;;;;;11.91;75.52;96953.75;101262;1298;640548;-70
2023/07/21 01:05:27;;;;;;;3.90;3.20;;;;;;;11.86;75.65;96950.95;102648;1290;96647;-71
2023/07/21 01:20:51;;;;;;;3.70;2.80;;;;;;;11.86;76.09;96937.64;101222;1309;637586;-75
2023/07/21 01:23:51;;;;;;;6.30;2.80;;;;;;;11.83;76.14;96934.65;104096;1276;95880;-75
2023/07/21 01:26:21;;;;;;;4.00;2.80;;;;;;;11.82;76.09;96933.39;104042;1271;95861;-75
2023/07/21 01:28:49;;;;;;;4.00;2.50;;;;;;;11.82;75.92;96936.46;104022;1275;100447;-76
2023/07/21 01:31:19;;;;;;;9.50;3.50;;;;;;;11.81;75.85;96933.52;103978;1275;100655;-75
2023/07/21 01:33:49;;;;;;;2.80;2.50;;;;;;;11.78;75.77;96934.31;103883;1287;182316;-74
2023/07/21 01:36:18;;;;;;;3.00;2.70;;;;;;;11.75;75.90;96932.75;104457;1266;96857;-74
2023/07/21 01:38:47;;;;;;;3.80;2.70;;;;;;;11.74;75.84;96931.79;103921;1276;95982;-77
2023/07/21 01:41:16;;;;;;;4.50;2.70;;;;;;;11.72;75.73;96935.68;104377;1270;98641;-78
2023/07/21 01:43:46;;;;;;;2.90;2.60;;;;;;;11.68;75.71;96939.75;104022;1275;100090;-78
2023/07/21 01:46:14;;;;;;;7.20;2.50;;;;;;;11.66;75.83;96941.23;103861;1277;97902;-74
2023/07/21 01:48:43;;;;;;;2.50;2.30;;;;;;;11.64;75.75;96936.97;103997;1274;97343;-74
2023/07/21 01:51:11;;;;;;;5.40;2.30;;;;;;;11.63;75.79;96938.73;104639;1267;95875;-76
2023/07/21 01:53:41;;;;;;;2.90;2.50;;;;;;;11.63;75.81;96939.98;104131;1274;99928;-74
2023/07/21 01:56:30;;;;;;;5.10;2.70;;;;;;;11.60;75.75;96937.40;103892;1274;100583;-74
2023/07/21 01:59:05;;;;;;;4.40;3.00;;;;;;;11.56;75.79;96942.16;104159;1290;98745;-74
2023/07/21 02:01:34;;;;;;;5.50;3.30;;;;;;;11.55;75.88;96943.39;103936;1273;96359;-77
2023/07/21 02:04:02;;;;;;;5.80;2.70;;;;;;;11.55;75.82;96943.71;104177;1273;97106;-77
2023/07/21 02:06:30;;;;;;;6.30;3.10;;;;;;;11.53;75.81;96941.11;104317;1271;99719;-77
2023/07/21 02:08:58;;;;;;;2.90;2.60;;;;;;;11.51;75.80;96940.63;104562;1266;101455;-78
2023/07/21 02:11:26;;;;;;;3.10;2.90;;;;;;;11.48;75.83;96938.77;104720;1281;99346;-78
2023/07/21 02:13:54;;;;;;;3.90;3.20;;;;;;;11.41;75.88;96937.95;104750;1265;95859;-77
2023/07/21 02:16:21;;;;;;;7.20;3.50;;;;;;;11.36;76.03;96938.04;104768;1259;97230;-74
2023/07/21 02:18:49;;;;;;;3.80;3.30;;;;;;;11.37;76.15;96941.41;104692;1264;109756;-78
2023/07/21 02:21:17;;;;;;;4.60;3.50;;;;;;;11.36;76.28;96946.70;104494;1259;100559;-80
2023/07/21 02:23:44;;;;;;;4.60;3.40;;;;;;;11.33;76.37;96948.88;104612;1265;99447;-78
2023/07/21 02:26:12;;;;;;;6.40;3.30;;;;;;;11.30;76.25;96946.00;104681;1262;95986;-78
2023/07/21 02:28:41;;;;;;;3.60;3.10;;;;;;;11.29;76.25;96941.93;104720;1263;95789;-77
2023/07/21 02:31:09;;;;;;;3.40;3.10;;;;;;;11.29;76.44;96947.13;104650;1278;99713;-78
2023/07/21 02:33:37;;;;;;;3.60;2.90;;;;;;;11.30;76.45;96948.08;104433;1268;100108;-74
2023/07/21 02:36:45;;;;;;;6.30;3.10;;;;;;;11.25;76.32;96941.23;104614;1264;97496;-70
2023/07/21 02:39:54;;;;;;;3.10;2.50;;;;;;;11.18;76.51;96946.18;103956;1270;96226;-71
2023/07/21 02:56:04;;;;;;;4.40;3.10;;;;;;;10.92;77.16;96948.42;101240;1308;640590;-70
2023/07/21 02:59:02;;;;;;;5.40;3.40;;;;;;;10.92;77.42;96949.41;103840;1286;96117;-70
2023/07/21 03:02:10;;;;;;;3.60;3.30;;;;;;;10.96;77.58;96949.80;104376;1269;96909;-77
2023/07/21 03:05:18;;;;;;;4.40;3.00;;;;;;;10.99;77.55;96952.59;103821;1292;98591;-77
2023/07/21 03:08:03;;;;;;;3.70;3.00;;;;;;;10.99;77.40;96955.55;103477;1272;153169;-79
2023/07/21 03:10:31;;;;;;;4.30;3.00;;;;;;;10.98;77.45;96956.77;103857;1278;100164;-79
2023/07/21 03:12:59;;;;;;;4.10;2.70;;;;;;;11.01;77.56;96952.70;103817;1272;95843;-79
2023/07/21 03:15:27;;;;;;;4.30;3.10;;;;;;;11.04;77.44;96953.15;103907;1275;96020;-80
2023/07/21 03:17:55;;;;;;;3.80;2.80;;;;;;;11.05;77.47;96954.89;103729;1274;99708;-79
2023/07/21 03:20:23;;;;;;;6.10;3.60;;;;;;;11.06;77.45;96956.33;103970;1287;101655;-79
2023/07/21 03:22:50;;;;;;;4.80;3.10;;;;;;;11.03;77.25;96954.66;104045;1271;107010;-80
2023/07/21 03:25:18;;;;;;;3.20;3.00;;;;;;;10.98;77.38;96951.70;103483;1274;96038;-74
2023/07/21 03:27:46;;;;;;;5.40;3.10;;;;;;;10.94;77.58;96950.86;103810;1285;96977;-74
2023/07/21 03:30:14;;;;;;;3.60;3.20;;;;;;;10.94;77.81;96953.06;103611;1279;100273;-74
2023/07/21 03:32:46;;;;;;;5.00;3.70;;;;;;;10.97;77.80;96951.17;103927;1282;101695;-74
2023/07/21 03:35:14;;;;;;;5.10;3.60;;;;;;;11.01;78.06;96947.41;104004;1276;99226;-74
2023/07/21 03:38:08;;;;;;;4.20;3.40;;;;;;;11.05;78.10;96949.11;103718;1276;97327;-72
2023/07/21 03:41:19;;;;;;;6.00;3.20;;;;;;;11.09;78.08;96950.23;103800;1274;97013;-72
2023/07/21 03:44:27;;;;;;;6.80;3.00;;;;;;;11.13;78.24;96950.89;103791;1277;99813;-72
2023/07/21 03:47:25;;;;;;;8.30;3.40;;;;;;;11.18;78.24;96955.20;103025;1298;101780;-79
2023/07/21 04:13:33;;;;;;;9.90;7.20;;;;;;;11.80;78.20;96949.84;102433;1287;641998;-74
2023/07/21 04:15:59;;;;;;;16.90;8.30;;;;;;;12.09;78.03;96941.48;104347;1271;105376;-74
2023/07/21 04:18:26;;;;;;;8.20;7.30;;;;;;;12.11;78.13;96944.25;104389;1268;96822;-74
2023/07/21 04:20:52;;;;;;;11.60;8.20;;;;;;;12.12;78.28;96943.56;104442;1266;100346;-75
2023/07/21 04:23:18;;;;;;;12.00;8.30;;;;;;;12.13;78.18;96938.27;104485;1268;96358;-74
2023/07/21 04:25:46;;;;;;;9.30;7.80;;;;;;;12.14;78.32;96936.67;104424;1266;95865;-74
2023/07/21 04:28:12;;;;;;;12.90;7.40;;;;;;;12.17;78.42;96937.85;104481;1268;95933;-75
2023/07/21 04:30:39;;;;;;;10.60;7.40;;;;;;;12.19;78.45;96937.95;104291;1271;95851;-89
2023/07/21 04:33:05;;;;;;;11.60;6.60;;;;;;;12.23;78.54;96938.64;104154;1273;100149;-90
2023/07/21 04:35:31;;;;;;;11.10;6.50;;;;;;;12.27;78.54;96941.88;104263;1271;96927;-90
2023/07/21 04:38:38;;;;;;;6.30;5.70;;;;;;;12.31;78.79;96938.63;104273;1270;96076;-77
2023/07/21 04:41:45;;;;;;;7.90;6.30;;;;;;;12.38;79.07;96940.52;103825;1276;99523;-76
2023/07/21 04:44:52;;;;;;;11.30;6.80;;;;;;;12.44;79.22;96941.04;102116;1290;100579;-79
2023/07/21 04:48:02;;;;;;;12.80;7.60;;;;;;;12.47;79.06;96939.12;101537;1294;99094;-76
2023/07/21 05:01:01;;;;;;;10.00;6.70;;;;;;;12.82;79.44;96920.11;101192;1300;638561;-73
2023/07/21 05:04:09;;;;;;;10.20;6.50;;;;;;;12.89;79.63;96915.61;103151;1281;96030;-71
2023/07/21 05:06:37;;;;;;;10.00;6.40;;;;;;;12.97;79.79;96913.45;102206;1294;96555;-81
2023/07/21 05:09:04;;;;;;;13.10;6.90;;;;;;;13.04;79.83;96916.40;101977;1296;98725;-81
2023/07/21 05:11:33;;;;;;;9.30;6.10;;;;;;;13.10;79.77;96917.36;102198;1301;100493;-81
2023/07/21 05:14:03;;;;;;;10.50;5.90;;;;;;;13.17;79.65;96919.30;102101;1293;128888;-81
2023/07/21 05:16:31;;;;;;;11.30;6.40;;;;;;;13.23;79.67;96916.96;102345;1301;95927;-74
2023/07/21 05:18:59;;;;;;;11.00;6.70;;;;;;;13.29;79.64;96924.50;102147;1292;96109;-74
2023/07/21 05:21:27;;;;;;;11.80;7.20;;;;;;;13.36;79.76;96923.08;102613;1284;99767;-74
2023/07/21 05:23:54;;;;;;;10.80;7.10;;;;;;;13.44;79.61;96921.75;102553;1289;100046;-80
2023/07/21 05:26:23;;;;;;;11.90;7.70;;;;;;;13.52;79.65;96925.44;102479;1289;99869;-88
2023/07/21 05:28:53;;;;;;;9.00;6.60;;;;;;;13.61;79.79;96918.46;102291;1290;97320;-87
2023/07/21 05:31:22;;;;;;;11.70;6.70;;;;;;;13.65;79.73;96910.72;102302;1290;95966;-89
2023/07/21 05:33:51;;;;;;;8.10;5.60;;;;;;;13.69;79.86;96915.19;102271;1294;99710;-89
2023/07/21 05:36:19;;;;;;;10.50;6.80;;;;;;;13.76;80.00;96920.91;102299;1290;108966;-88
2023/07/21 05:38:47;;;;;;;10.40;6.90;;;;;;;13.85;80.14;96929.60;102438;1306;100662;-89
2023/07/21 05:41:15;;;;;;;11.70;7.60;;;;;;;13.96;79.98;96929.11;102434;1292;96068;-88
2023/07/21 05:43:43;;;;;;;11.50;7.50;;;;;;;14.08;79.76;96924.90;103063;1283;97213;-73
2023/07/21 05:46:52;;;;;;;10.50;7.80;;;;;;;14.17;79.57;96930.98;103608;1270;100247;-70
2023/07/21 05:50:01;;;;;;;10.20;6.80;;;;;;;14.29;79.64;96931.94;102971;1286;100570;-72
2023/07/21 06:09:12;;;;;;;13.10;7.10;;;;;;;14.89;79.57;96931.26;101246;1309;642079;-73
2023/07/21 06:12:10;;;;;;;10.00;7.10;;;;;;;14.96;79.93;96933.16;103410;1296;97031;-73
2023/07/21 06:14:40;;;;;;;9.10;6.60;;;;;;;15.05;79.96;96940.63;102767;1283;96615;-74
2023/07/21 06:17:08;;;;;;;10.20;6.30;;;;;;;15.09;79.82;96933.18;102856;1284;98548;-82
2023/07/21 06:19:36;;;;;;;7.50;6.70;;;;;;;15.17;79.78;96933.73;102900;1286;101521;-82
2023/07/21 06:22:04;;;;;;;7.70;6.40;;;;;;;15.26;79.67;96929.27;103598;1272;177665;-82
2023/07/21 06:24:32;;;;;;;8.20;6.20;;;;;;;15.36;79.74;96927.98;103802;1271;97078;-82
2023/07/21 06:27:00;;;;;;;11.20;7.40;;;;;;;15.47;79.82;96926.65;103781;1276;95966;-82
2023/07/21 06:29:27;;;;;;;12.00;7.80;;;;;;;15.58;79.74;96924.52;103898;1276;99507;-80
2023/07/21 06:31:55;;;;;;;11.50;7.70;;;;;;;15.70;79.93;96927.27;103879;1276;101174;-80
2023/07/21 06:34:23;;;;;;;10.80;8.00;;;;;;;15.81;80.01;96923.15;103869;1276;99900;-81
2023/07/21 06:36:51;;;;;;;12.60;6.80;;;;;;;15.92;79.94;96924.58;103842;1271;96845;-81
2023/07/21 06:39:18;;;;;;;9.20;6.10;;;;;;;16.04;80.21;96922.40;103875;1275;95993;-81
2023/07/21 06:41:46;;;;;;;7.30;4.80;;;;;;;16.16;80.38;96913.20;103903;1275;99975;-81
2023/07/21 06:44:14;;;;;;;5.60;4.20;;;;;;;16.27;79.48;96911.13;103904;1275;100146;-81
2023/07/21 06:46:44;;;;;;;6.70;4.10;;;;;;;16.35;79.18;96915.34;104008;1274;99081;-80
2023/07/21 06:49:14;;;;;;;5.40;4.30;;;;;;;16.44;78.90;96919.86;103889;1273;95953;-81
2023/07/21 06:51:42;;;;;;;6.00;4.00;;;;;;;16.51;78.50;96911.86;104290;1258;96025;-80
2023/07/21 06:54:11;;;;;;;6.10;4.10;;;;;;;16.58;78.41;96907.11;104813;1259;100772;-81
2023/07/21 06:56:38;;;;;;;5.50;4.20;;;;;;;16.68;78.81;96898.27;104829;1257;101109;-81
2023/07/21 06:59:06;;;;;;;4.90;3.80;;;;;;;16.79;78.61;96893.35;104838;1262;100204;-82
2023/07/21 07:01:34;;;;;;;7.50;3.70;;;;;;;16.92;78.52;96893.42;104856;1261;97129;-81
2023/07/21 07:04:02;;;;;;;4.10;3.30;;;;;;;17.02;78.02;96894.89;104718;1259;95858;-82
2023/07/21 07:06:29;;;;;;;4.90;3.30;;;;;;;17.11;77.36;96894.50;104802;1256;99661;-79
2023/07/21 07:08:57;;;;;;;4.90;2.90;;;;;;;17.20;76.91;96892.04;104992;1254;100144;-82
2023/07/21 07:11:25;;;;;;;4.40;3.50;;;;;;;17.29;76.25;96889.61;104710;1263;99345;-76
2023/07/21 07:13:54;;;;;;;5.20;3.40;;;;;;;17.40;76.47;96884.37;104860;1259;95928;-82
2023/07/21 07:16:22;;;;;;;4.30;3.20;;;;;;;17.52;76.59;96882.06;105108;1258;95844;-81
2023/07/21 07:18:49;;;;;;;4.10;3.20;;;;;;;17.62;76.43;96881.02;105093;1258;99701;-83
2023/07/21 07:21:17;;;;;;;4.10;3.20;;;;;;;17.76;76.50;96876.27;104953;1256;100569;-80
2023/07/21 07:23:45;;;;;;;3.30;3.00;;;;;;;17.89;76.03;96873.07;104954;1256;98658;-83
2023/07/21 07:26:12;;;;;;;5.30;3.20;;;;;;;18.01;75.32;96869.64;104971;1254;95796;-83
2023/07/21 07:28:40;;;;;;;4.00;3.40;;;;;;;18.13;75.39;96866.92;104972;1258;97155;-81
2023/07/21 07:31:08;;;;;;;6.30;2.90;;;;;;;18.26;75.00;96867.96;104863;1275;99770;-81
2023/07/21 07:34:16;;;;;;;2.90;2.70;;;;;;;18.39;74.58;96866.92;104843;1259;100598;-74
2023/07/21 07:37:25;;;;;;;5.20;3.40;;;;;;;18.57;74.63;96866.11;104107;1271;99078;-74
2023/07/21 08:00:59;;;;;;;2.30;2.10;;;;;;;20.68;70.13;96866.58;105065;1262;642403;-72
2023/07/21 08:04:06;;;;;;;2.90;2.20;;;;;;;21.62;67.46;96864.66;101826;1269;5435168;-74
2023/07/21 08:07:09;;;;;;;2.90;2.30;;;;;;;22.09;66.39;96867.75;104931;1267;97018;-74
2023/07/21 08:09:56;;;;;;;5.30;2.40;;;;;;;22.49;64.67;96865.38;104550;1276;98355;-74
2023/07/21 08:12:56;;;;;;;5.00;2.20;;;;;;;22.96;63.21;96864.28;104553;1276;100271;-71
2023/07/21 08:15:46;;;;;;;4.20;2.50;;;;;;;23.49;62.06;96859.34;104133;1288;99252;-73
2023/07/21 08:19:15;;;;;;;2.30;1.90;;;;;;;24.03;60.96;96853.42;101856;1292;635416;-74
2023/07/21 08:22:26;;;;;;;5.80;2.30;;;;;;;24.40;59.82;96850.48;103592;1275;97252;-75
2023/07/21 08:25:33;;;;;;;2.50;2.30;;;;;;;24.79;59.05;96852.69;102413;1291;95958;-76
2023/07/21 09:09:49;;;;;;;3.10;2.20;;;;;;;28.78;47.67;96839.08;102027;1290;103026;-73
2023/07/21 09:12:17;;;;;;;3.90;2.10;;;;;;;29.06;47.22;96840.87;102224;1289;98385;-72
2023/07/21 09:14:50;;;;;;;3.30;2.20;;;;;;;29.24;46.91;96842.45;102571;1289;96948;-73
2023/07/21 09:17:25;;;;;;;2.30;2.10;;;;;;;29.33;45.45;96840.37;102744;1285;96070;-77
2023/07/21 09:19:56;;;;;;;4.50;2.20;;;;;;;29.28;44.75;96839.43;102747;1289;99897;-72
2023/07/21 09:22:27;;;;;;;2.10;1.90;;;;;;;29.15;45.03;96836.33;103006;1294;109302;-72
2023/07/21 09:24:57;;;;;;;3.90;2.50;;;;;;;29.08;45.48;96831.11;102938;1281;98815;-75
2023/07/21 09:27:52;;;;;;;3.70;2.40;;;;;;;29.01;44.94;96821.96;103681;1274;96038;-75
2023/07/21 09:30:29;;;;;;;6.90;2.30;;;;;;;29.02;45.25;96815.27;104070;1270;97141;-73
2023/07/21 09:33:08;;;;;;;5.30;2.40;;;;;;;28.94;44.81;96816.80;104030;1274;100135;-77
2023/07/21 09:35:40;;;;;;;3.90;2.20;;;;;;;28.75;44.58;96815.34;104757;1264;100520;-75
2023/07/21 09:38:48;;;;;;;4.80;2.40;;;;;;;28.57;44.90;96818.73;104564;1272;108012;-75
2023/07/21 09:41:32;;;;;;;2.50;2.10;;;;;;;28.58;44.87;96818.39;104297;1266;96150;-77
2023/07/21 09:44:21;;;;;;;5.10;2.90;;;;;;;28.55;45.27;96815.48;104272;1266;97419;-75
2023/07/21 09:46:59;;;;;;;4.70;2.70;;;;;;;28.44;45.77;96813.26;104368;1270;100419;-73
2023/07/21 09:49:58;;;;;;;2.60;2.00;;;;;;;28.32;45.74;96810.92;104215;1270;109042;-72
2023/07/21 09:52:40;;;;;;;2.90;2.50;;;;;;;28.17;45.13;96807.52;103824;1275;99015;-74
2023/07/21 09:55:30;;;;;;;2.40;2.20;;;;;;;27.96;45.36;96803.36;103882;1273;96873;-72
2023/07/21 09:58:08;;;;;;;12.00;9.20;;;;;;;27.79;45.82;96800.15;103201;1283;96199;-72
2023/07/21 10:00:48;;;;;;;8.70;6.60;;;;;;;27.72;46.28;96802.48;103139;1285;101048;-73
2023/07/21 10:03:56;;;;;;;5.40;3.90;;;;;;;27.59;46.28;96805.36;103120;1283;100193;-77
2023/07/21 10:06:58;;;;;;;4.40;2.90;;;;;;;27.34;46.39;96806.34;103025;1294;98868;-72
2023/07/21 10:10:07;;;;;;;2.70;2.50;;;;;;;27.04;46.98;96806.27;103020;1283;97524;-73
2023/07/21 10:13:09;;;;;;;5.70;3.10;;;;;;;26.69;47.90;96807.83;102741;1288;95979;-71
2023/07/21 10:15:48;;;;;;;5.70;3.30;;;;;;;26.37;48.06;96813.98;102440;1283;100195;-73
2023/07/21 10:18:56;;;;;;;5.10;3.40;;;;;;;26.07;48.20;96814.83;102826;1288;100605;-77
2023/07/21 10:22:12;;;;;;;4.70;2.90;;;;;;;25.72;48.90;96822.83;102980;1282;99455;-73
2023/07/21 10:25:17;;;;;;;3.40;3.00;;;;;;;25.39;49.63;96822.62;102818;1295;96079;-71
2023/07/21 10:28:02;;;;;;;6.40;3.50;;;;;;;25.14;50.62;96826.38;102957;1286;97167;-84
2023/07/21 10:30:30;;;;;;;3.70;2.70;;;;;;;24.96;51.12;96827.59;102936;1292;98972;-83
2023/07/21 10:33:20;;;;;;;5.50;3.50;;;;;;;24.80;51.82;96826.23;103295;1274;100618;-84
2023/07/21 10:35:47;;;;;;;3.60;2.60;;;;;;;24.67;52.61;96832.36;103279;1279;97988;-88
2023/07/21 10:38:15;;;;;;;4.20;3.00;;;;;;;24.53;53.24;96831.95;104118;1275;96187;-84
2023/07/21 10:40:44;;;;;;;6.80;3.20;;;;;;;24.42;53.76;96832.05;104036;1277;96266;-84
2023/07/21 10:43:13;;;;;;;5.70;3.50;;;;;;;24.34;54.38;96831.81;104189;1271;101146;-71
2023/07/21 10:45:41;;;;;;;9.30;5.70;;;;;;;24.25;54.79;96832.92;104062;1274;101804;-81
2023/07/21 10:48:16;;;;;;;6.70;3.90;;;;;;;24.13;55.21;96835.52;104084;1269;99161;-81
2023/07/21 10:50:54;;;;;;;11.10;7.00;;;;;;;23.99;55.48;96832.02;104387;1266;96001;-82
2023/07/21 10:53:23;;;;;;;10.80;9.20;;;;;;;23.87;55.37;96832.95;104493;1266;97235;-80
2023/07/21 10:56:31;;;;;;;16.50;13.20;;;;;;;23.82;54.90;96830.60;104620;1265;100701;-72
2023/07/21 10:59:23;;;;;;;18.60;15.40;;;;;;;23.71;54.51;96830.77;103820;1290;100594;-71
2023/07/21 11:01:54;;;;;;;19.20;15.70;;;;;;;23.65;54.81;96827.62;103572;1279;100161;-71
2023/07/21 11:05:03;;;;;;;16.60;12.20;;;;;;;23.62;54.88;96823.86;103574;1279;96935;-72
2023/07/21 11:07:31;;;;;;;18.60;10.50;;;;;;;23.63;54.96;96818.23;103287;1281;95980;-71
2023/07/21 11:10:40;;;;;;;13.30;10.80;;;;;;;23.61;55.35;96817.23;103371;1280;101493;-71
2023/07/21 11:13:47;;;;;;;13.00;8.70;;;;;;;23.56;55.80;96820.55;103290;1283;100615;-73
2023/07/21 11:16:46;;;;;;;8.70;7.10;;;;;;;23.41;55.26;96818.59;103381;1283;99076;-71
2023/07/21 12:09:46;;;;;;;3.50;2.80;;;;;;;24.30;57.05;96795.63;105826;1265;96094;-71
2023/07/21 12:12:12;;;;;;;6.00;3.10;;;;;;;24.33;56.31;96793.84;107177;1244;98667;-74
2023/07/21 12:14:38;;;;;;;6.40;3.30;;;;;;;24.22;55.07;96789.45;108099;1237;96077;-74
2023/07/21 12:17:05;;;;;;;3.70;3.20;;;;;;;24.14;54.57;96792.18;107881;1238;96642;-80
2023/07/21 12:19:32;;;;;;;3.80;2.90;;;;;;;24.13;54.33;96794.55;108242;1236;95901;-80
2023/07/21 12:21:58;;;;;;;4.00;3.10;;;;;;;24.15;54.22;96800.30;107776;1240;98745;-71
2023/07/21 12:25:05;;;;;;;5.10;3.50;;;;;;;24.16;54.73;96801.84;108212;1237;95847;-72
2023/07/21 12:28:12;;;;;;;3.50;3.20;;;;;;;24.10;55.36;96802.72;107041;1248;96399;-70
2023/07/21 12:31:19;;;;;;;9.40;3.60;;;;;;;23.99;55.25;96805.39;105781;1258;100857;-74
2023/07/21 12:34:16;;;;;;;4.60;3.10;;;;;;;23.87;55.31;96801.83;105816;1260;100276;-72
2023/07/21 12:37:03;;;;;;;4.70;3.40;;;;;;;23.77;55.50;96801.06;105321;1264;98589;-72
2023/07/21 12:39:51;;;;;;;4.50;4.00;;;;;;;23.69;55.93;96801.69;105267;1263;96807;-72
2023/07/21 13:42:42;;;;;;;17.90;13.20;;;;;;;22.60;61.44;96787.23;105378;1273;99524;-74
2023/07/21 13:45:31;;;;;;;7.60;5.70;;;;;;;22.61;61.13;96785.23;106669;1252;100012;-72
2023/07/21 13:48:20;;;;;;;3.60;3.20;;;;;;;22.60;60.22;96787.48;107587;1252;97699;-73
2023/07/21 13:51:27;;;;;;;6.10;4.10;;;;;;;22.59;59.67;96787.11;107373;1244;95829;-73
2023/07/21 13:53:54;;;;;;;8.20;4.70;;;;;;;22.56;59.33;96785.16;106828;1251;97113;-86
2023/07/21 13:56:20;;;;;;;8.20;6.30;;;;;;;22.51;60.05;96780.02;106984;1257;96458;-87
2023/07/21 13:58:47;;;;;;;6.10;5.50;;;;;;;22.48;60.18;96781.01;106974;1250;96531;-87
2023/07/21 14:01:13;;;;;;;8.10;5.90;;;;;;;22.50;59.98;96781.14;107072;1260;97199;-87
2023/07/21 14:03:39;;;;;;;5.60;4.30;;;;;;;22.55;60.01;96783.58;107055;1251;96053;-87
2023/07/21 14:06:06;;;;;;;6.70;3.30;;;;;;;22.60;59.56;96782.31;106928;1251;96021;-88
2023/07/21 14:08:32;;;;;;;7.90;4.20;;;;;;;22.63;59.00;96779.02;107158;1254;96022;-86
2023/07/21 14:10:58;;;;;;;5.70;3.60;;;;;;;22.68;58.75;96782.27;107064;1259;95902;-76
2023/07/21 14:13:25;;;;;;;6.80;4.00;;;;;;;22.68;58.99;96776.31;106995;1257;95903;-76
2023/07/21 14:15:51;;;;;;;10.60;6.80;;;;;;;22.68;58.46;96772.23;107037;1250;95877;-82
2023/07/21 14:18:17;;;;;;;10.40;6.00;;;;;;;22.70;59.12;96771.96;107011;1258;96809;-82
2023/07/21 14:20:44;;;;;;;8.10;4.80;;;;;;;22.72;59.78;96773.17;107008;1256;96153;-82
2023/07/21 14:23:10;;;;;;;7.50;4.20;;;;;;;22.77;60.06;96776.60;106996;1251;97000;-82
2023/07/21 14:26:14;;;;;;;4.50;3.40;;;;;;;22.81;59.40;96773.08;106994;1249;96014;-74
2023/07/21 14:29:07;;;;;;;5.30;3.60;;;;;;;22.85;59.37;96764.54;106230;1257;99106;-73
2023/07/21 14:31:56;;;;;;;4.70;3.60;;;;;;;22.95;59.12;96764.55;106447;1256;100170;-72
2023/07/21 14:34:56;;;;;;;5.40;3.40;;;;;;;23.04;58.41;96761.48;106044;1257;97119;-73
2023/07/21 14:37:52;;;;;;;6.70;3.50;;;;;;;23.11;58.58;96756.98;105486;1272;96860;-71
2023/07/21 14:40:31;;;;;;;4.90;3.60;;;;;;;23.17;58.05;96759.19;107736;1257;100974;-73
2023/07/21 14:43:28;;;;;;;4.70;3.50;;;;;;;23.14;56.98;96760.77;105239;1272;100280;-71
2023/07/21 14:46:24;;;;;;;6.90;3.70;;;;;;;23.13;56.57;96750.05;105815;1257;99058;-72
2023/07/21 14:49:31;;;;;;;6.80;3.30;;;;;;;23.23;57.21;96741.91;105057;1265;95965;-72
2023/07/21 15:12:16;;;;;;;6.90;3.30;;;;;;;24.66;54.34;96701.16;104174;1274;96053;-78
2023/07/21 15:14:42;;;;;;;8.90;3.80;;;;;;;24.79;54.56;96694.48;104386;1271;102224;-77
2023/07/21 15:17:08;;;;;;;3.50;2.90;;;;;;;24.84;53.77;96689.20;104749;1267;96020;-85
2023/07/21 15:19:35;;;;;;;4.10;3.00;;;;;;;24.73;53.00;96688.98;104813;1282;97261;-85
2023/07/21 15:22:01;;;;;;;3.30;3.00;;;;;;;24.64;53.17;96686.70;104766;1270;96048;-85
2023/07/21 15:27:50;;;;;;;3.60;3.20;;;;;;;24.46;54.27;96677.98;104512;1277;99256;-74
2023/07/21 15:30:47;;;;;;;4.30;2.80;;;;;;;24.38;53.64;96673.38;105029;1265;97061;-75
2023/07/21 15:33:54;;;;;;;6.60;3.10;;;;;;;24.35;54.10;96674.77;105952;1263;97107;-74
2023/07/21 15:37:00;;;;;;;5.40;3.00;;;;;;;24.31;54.24;96673.38;105737;1257;101106;-74
2023/07/21 15:39:51;;;;;;;6.00;3.00;;;;;;;24.22;54.10;96668.42;104638;1271;100165;-77
2023/07/21 16:16:10;;;;;;;6.50;3.50;;;;;;;23.14;57.73;96636.40;103917;1281;96499;-73
2023/07/21 16:18:36;;;;;;;5.10;3.40;;;;;;;23.13;57.77;96631.52;104670;1273;100135;-72
2023/07/21 16:21:02;;;;;;;5.50;3.00;;;;;;;23.09;58.09;96622.78;104779;1268;95941;-72
2023/07/21 16:23:29;;;;;;;5.30;3.30;;;;;;;22.95;58.46;96614.38;105536;1261;95990;-72
2023/07/21 16:25:55;;;;;;;3.60;3.10;;;;;;;22.88;59.05;96616.02;106438;1258;95977;-72
2023/07/21 16:28:21;;;;;;;7.10;3.70;;;;;;;22.82;58.96;96617.96;107051;1250;100956;-72
2023/07/21 16:30:48;;;;;;;4.10;3.20;;;;;;;22.80;58.65;96626.11;107014;1250;97186;-81
2023/07/21 16:33:14;;;;;;;5.80;3.50;;;;;;;22.79;58.88;96617.55;107577;1238;95956;-81
2023/07/21 16:35:40;;;;;;;7.70;3.70;;;;;;;22.81;59.11;96617.38;107646;1241;96150;-81
2023/07/21 16:38:09;;;;;;;8.90;3.90;;;;;;;22.83;59.38;96620.95;107610;1250;99650;-81
2023/07/21 16:40:35;;;;;;;5.30;3.80;;;;;;;22.82;59.86;96621.36;107575;1236;97810;-81
2023/07/21 16:43:03;;;;;;;5.90;3.40;;;;;;;22.82;60.28;96614.66;107666;1246;95886;-82
2023/07/21 16:45:29;;;;;;;8.00;3.80;;;;;;;22.80;60.20;96610.58;107666;1241;96780;-82
2023/07/21 16:47:55;;;;;;;7.60;3.60;;;;;;;22.80;60.07;96605.04;107536;1248;95826;-81
2023/07/21 16:50:22;;;;;;;5.20;3.50;;;;;;;22.78;60.23;96596.05;107544;1238;100444;-72
2023/07/21 16:53:21;;;;;;;3.70;3.30;;;;;;;22.74;61.01;96587.52;107637;1241;97032;-74
2023/07/21 16:56:05;;;;;;;7.80;3.10;;;;;;;22.65;61.50;96580.55;106984;1248;96070;-71
2023/07/21 16:58:44;;;;;;;6.20;4.30;;;;;;;22.61;61.51;96580.23;106905;1248;96780;-72
2023/07/21 17:01:51;;;;;;;5.90;3.80;;;;;;;22.56;61.96;96578.94;107055;1249;99896;-72
2023/07/21 17:04:58;;;;;;;6.30;3.70;;;;;;;22.53;62.57;96582.36;106021;1266;100381;-73
2023/07/21 17:08:05;;;;;;;4.50;3.90;;;;;;;22.47;62.62;96581.77;105329;1266;98926;-71
2023/07/21 17:14:34;;;;;;;4.10;3.20;;;;;;;22.32;63.47;96579.61;104088;1282;96201;-73
2023/07/21 17:43:42;;;;;;;6.00;3.80;;;;;;;22.13;64.66;96560.05;105392;1265;94834;-73
2023/07/21 17:46:42;;;;;;;7.40;3.90;;;;;;;22.02;64.88;96561.08;106852;1250;95852;-77
2023/07/21 17:49:34;;;;;;;8.00;4.20;;;;;;;21.91;65.11;96567.73;107507;1253;98267;-74
2023/07/21 17:52:03;;;;;;;8.70;4.60;;;;;;;21.82;65.09;96570.61;107280;1254;100070;-72
2023/07/21 17:55:00;;;;;;;6.80;4.30;;;;;;;21.74;65.34;96563.73;107215;1241;99828;-74
2023/07/21 17:57:57;;;;;;;8.80;4.40;;;;;;;21.59;65.49;96552.31;106646;1251;95967;-74